sensor_id;sensor_type;location;lat;lon;timestamp;pressure;altitude;pressure_sealevel;temperature
67966;BMP280;54749;47.850;9.002;2023-03-01T00:01:16;96456.47;;;0.01
67966;BMP280;54749;47.850;9.002;2023-03-01T00:03:43;96455.66;;;0.01
67966;BMP280;54749;47.850;9.002;2023-03-01T00:06:11;96458.09;;;0.02
67966;BMP280;54749;47.850;9.002;2023-03-01T00:08:38;96438.19;;;0.04
67966;BMP280;54749;47.850;9.002;2023-03-01T00:11:06;96444.75;;;0.06
67966;BMP280;54749;47.850;9.002;2023-03-01T00:13:34;96448.06;;;0.05
67966;BMP280;54749;47.850;9.002;2023-03-01T00:16:06;96445.47;;;0.10
67966;BMP280;54749;47.850;9.002;2023-03-01T00:18:33;96445.47;;;0.10
67966;BMP280;54749;47.850;9.002;2023-03-01T00:21:01;96441.22;;;0.13
67966;BMP280;54749;47.850;9.002;2023-03-01T00:23:28;96443.66;;;0.15
67966;BMP280;54749;47.850;9.002;2023-03-01T00:25:55;96433.56;;;0.20
67966;BMP280;54749;47.850;9.002;2023-03-01T00:28:22;96427.69;;;0.23
67966;BMP280;54749;47.850;9.002;2023-03-01T00:30:49;96430.09;;;0.26
67966;BMP280;54749;47.850;9.002;2023-03-01T00:33:17;96419.22;;;0.30
67966;BMP280;54749;47.850;9.002;2023-03-01T00:35:44;96428.88;;;0.38
67966;BMP280;54749;47.850;9.002;2023-03-01T00:38:11;96418.84;;;0.41
67966;BMP280;54749;47.850;9.002;2023-03-01T00:40:38;96427.84;;;0.44
67966;BMP280;54749;47.850;9.002;2023-03-01T00:43:05;96431.16;;;0.44
67966;BMP280;54749;47.850;9.002;2023-03-01T00:45:33;96432.78;;;0.45
67966;BMP280;54749;47.850;9.002;2023-03-01T00:48:00;96426.88;;;0.49
67966;BMP280;54749;47.850;9.002;2023-03-01T00:50:27;96431.81;;;0.51
67966;BMP280;54749;47.850;9.002;2023-03-01T00:52:55;96429.13;;;0.56
67966;BMP280;54749;47.850;9.002;2023-03-01T00:55:23;96408.34;;;0.59
67966;BMP280;54749;47.850;9.002;2023-03-01T00:57:50;96414.06;;;0.61
67966;BMP280;54749;47.850;9.002;2023-03-01T01:00:19;96409.00;;;0.64
67966;BMP280;54749;47.850;9.002;2023-03-01T01:02:47;96433.09;;;0.62
67966;BMP280;54749;47.850;9.002;2023-03-01T01:05:14;96413.03;;;0.68
67966;BMP280;54749;47.850;9.002;2023-03-01T01:07:47;96418.75;;;0.69
67966;BMP280;54749;47.850;9.002;2023-03-01T01:10:15;96401.31;;;0.71
67966;BMP280;54749;47.850;9.002;2023-03-01T01:12:44;96407.94;;;0.70
67966;BMP280;54749;47.850;9.002;2023-03-01T01:15:12;96405.44;;;0.72
67966;BMP280;54749;47.850;9.002;2023-03-01T01:17:40;96397.16;;;0.71
67966;BMP280;54749;47.850;9.002;2023-03-01T01:20:08;96393.88;;;0.69
67966;BMP280;54749;47.850;9.002;2023-03-01T01:22:35;96399.66;;;0.70
67966;BMP280;54749;47.850;9.002;2023-03-01T01:25:02;96390.53;;;0.70
67966;BMP280;54749;47.850;9.002;2023-03-01T01:27:30;96379.75;;;0.71
67966;BMP280;54749;47.850;9.002;2023-03-01T01:29:57;96380.56;;;0.72
67966;BMP280;54749;47.850;9.002;2023-03-01T01:32:24;96373.06;;;0.73
67966;BMP280;54749;47.850;9.002;2023-03-01T01:34:53;96372.19;;;0.74
67966;BMP280;54749;47.850;9.002;2023-03-01T01:37:20;96373.69;;;0.78
67966;BMP280;54749;47.850;9.002;2023-03-01T01:39:47;96373.66;;;0.80
67966;BMP280;54749;47.850;9.002;2023-03-01T01:42:16;96368.72;;;0.78
67966;BMP280;54749;47.850;9.002;2023-03-01T01:44:47;96373.69;;;0.78
67966;BMP280;54749;47.850;9.002;2023-03-01T01:47:18;96362.84;;;0.81
67966;BMP280;54749;47.850;9.002;2023-03-01T01:49:50;96357.84;;;0.82
67966;BMP280;54749;47.850;9.002;2023-03-01T01:52:20;96353.63;;;0.84
67966;BMP280;54749;47.850;9.002;2023-03-01T01:54:54;96347.81;;;0.84
67966;BMP280;54749;47.850;9.002;2023-03-01T01:57:28;96351.97;;;0.83
67966;BMP280;54749;47.850;9.002;2023-03-01T01:59:58;96337.94;;;0.82
67966;BMP280;54749;47.850;9.002;2023-03-01T02:02:27;96352.81;;;0.84
67966;BMP280;54749;47.850;9.002;2023-03-01T02:05:08;96351.13;;;0.84
67966;BMP280;54749;47.850;9.002;2023-03-01T02:07:39;96358.59;;;0.84
67966;BMP280;54749;47.850;9.002;2023-03-01T02:10:07;96345.34;;;0.84
67966;BMP280;54749;47.850;9.002;2023-03-01T02:12:34;96341.19;;;0.84
67966;BMP280;54749;47.850;9.002;2023-03-01T02:15:04;96342.84;;;0.84
67966;BMP280;54749;47.850;9.002;2023-03-01T02:17:32;96341.19;;;0.84
67966;BMP280;54749;47.850;9.002;2023-03-01T02:20:22;96333.81;;;0.81
67966;BMP280;54749;47.850;9.002;2023-03-01T02:22:50;96337.16;;;0.80
67966;BMP280;54749;47.850;9.002;2023-03-01T02:30:37;96344.75;;;0.77
67966;BMP280;54749;47.850;9.002;2023-03-01T02:33:26;96336.38;;;0.78
67966;BMP280;54749;47.850;9.002;2023-03-01T02:35:54;96337.31;;;0.76
67966;BMP280;54749;47.850;9.002;2023-03-01T02:38:22;96334.06;;;0.74
67966;BMP280;54749;47.850;9.002;2023-03-01T02:40:50;96326.75;;;0.69
67966;BMP280;54749;47.850;9.002;2023-03-01T02:43:19;96323.41;;;0.70
67966;BMP280;54749;47.850;9.002;2023-03-01T02:45:52;96325.00;;;0.73
67966;BMP280;54749;47.850;9.002;2023-03-01T02:48:19;96324.91;;;0.74
67966;BMP280;54749;47.850;9.002;2023-03-01T02:56:25;96305.84;;;0.75
67966;BMP280;54749;47.850;9.002;2023-03-01T02:58:52;96313.31;;;0.75
67966;BMP280;54749;47.850;9.002;2023-03-01T03:01:21;96313.25;;;0.76
67966;BMP280;54749;47.850;9.002;2023-03-01T03:03:48;96301.69;;;0.75
67966;BMP280;54749;47.850;9.002;2023-03-01T03:06:16;96296.72;;;0.75
67966;BMP280;54749;47.850;9.002;2023-03-01T03:08:43;96313.31;;;0.75
67966;BMP280;54749;47.850;9.002;2023-03-01T03:11:11;96316.72;;;0.72
67966;BMP280;54749;47.850;9.002;2023-03-01T03:13:38;96313.38;;;0.73
67966;BMP280;54749;47.850;9.002;2023-03-01T03:16:15;96303.44;;;0.73
67966;BMP280;54749;47.850;9.002;2023-03-01T03:18:42;96302.69;;;0.70
67966;BMP280;54749;47.850;9.002;2023-03-01T03:21:11;96293.56;;;0.70
67966;BMP280;54749;47.850;9.002;2023-03-01T03:23:38;96285.34;;;0.69
67966;BMP280;54749;47.850;9.002;2023-03-01T03:26:06;96314.38;;;0.68
67966;BMP280;54749;47.850;9.002;2023-03-01T03:28:34;96306.22;;;0.65
67966;BMP280;54749;47.850;9.002;2023-03-01T03:31:01;96300.34;;;0.66
67966;BMP280;54749;47.850;9.002;2023-03-01T03:33:31;96292.16;;;0.64
67966;BMP280;54749;47.850;9.002;2023-03-01T03:35:58;96303.72;;;0.65
67966;BMP280;54749;47.850;9.002;2023-03-01T03:38:25;96298.75;;;0.65
67966;BMP280;54749;47.850;9.002;2023-03-01T03:41:00;96308.75;;;0.63
67966;BMP280;54749;47.850;9.002;2023-03-01T03:43:30;96306.28;;;0.62
67966;BMP280;54749;47.850;9.002;2023-03-01T03:45:58;96302.03;;;0.65
67966;BMP280;54749;47.850;9.002;2023-03-01T03:48:26;96283.88;;;0.63
67966;BMP280;54749;47.850;9.002;2023-03-01T03:50:55;96302.91;;;0.64
67966;BMP280;54749;47.850;9.002;2023-03-01T03:53:24;96306.22;;;0.65
67966;BMP280;54749;47.850;9.002;2023-03-01T03:55:53;96306.22;;;0.65
67966;BMP280;54749;47.850;9.002;2023-03-01T03:58:22;96301.25;;;0.65
67966;BMP280;54749;47.850;9.002;2023-03-01T04:00:52;96301.25;;;0.65
67966;BMP280;54749;47.850;9.002;2023-03-01T04:03:19;96283.84;;;0.65
67966;BMP280;54749;47.850;9.002;2023-03-01T04:05:47;96298.75;;;0.65
67966;BMP280;54749;47.850;9.002;2023-03-01T04:08:18;96299.59;;;0.64
67966;BMP280;54749;47.850;9.002;2023-03-01T04:10:52;96284.63;;;0.65
67966;BMP280;54749;47.850;9.002;2023-03-01T04:13:21;96294.47;;;0.68
67966;BMP280;54749;47.850;9.002;2023-03-01T04:15:53;96286.25;;;0.66
67966;BMP280;54749;47.850;9.002;2023-03-01T04:18:23;96278.75;;;0.68
67966;BMP280;54749;47.850;9.002;2023-03-01T04:20:52;96285.34;;;0.69
67966;BMP280;54749;47.850;9.002;2023-03-01T04:23:22;96290.31;;;0.69
67966;BMP280;54749;47.850;9.002;2023-03-01T04:25:50;96281.13;;;0.70
67966;BMP280;54749;47.850;9.002;2023-03-01T04:28:32;96275.28;;;0.71
67966;BMP280;54749;47.850;9.002;2023-03-01T04:31:06;96279.44;;;0.71
67966;BMP280;54749;47.850;9.002;2023-03-01T04:33:51;96272.81;;;0.71
67966;BMP280;54749;47.850;9.002;2023-03-01T04:36:22;96276.97;;;0.71
67966;BMP280;54749;47.850;9.002;2023-03-01T04:38:49;96270.31;;;0.71
67966;BMP280;54749;47.850;9.002;2023-03-01T04:41:18;96272.78;;;0.73
67966;BMP280;54749;47.850;9.002;2023-03-01T04:43:45;96282.75;;;0.71
67966;BMP280;54749;47.850;9.002;2023-03-01T04:46:16;96271.97;;;0.72
67966;BMP280;54749;47.850;9.002;2023-03-01T04:48:44;96276.06;;;0.73
67966;BMP280;54749;47.850;9.002;2023-03-01T04:51:12;96276.06;;;0.73
67966;BMP280;54749;47.850;9.002;2023-03-01T04:53:42;96267.69;;;0.76
67966;BMP280;54749;47.850;9.002;2023-03-01T04:56:11;96272.78;;;0.73
67966;BMP280;54749;47.850;9.002;2023-03-01T04:58:37;96281.69;;;0.78
67966;BMP280;54749;47.850;9.002;2023-03-01T05:01:09;96283.53;;;0.73
67966;BMP280;54749;47.850;9.002;2023-03-01T05:03:50;96276.78;;;0.77
67966;BMP280;54749;47.850;9.002;2023-03-01T05:06:19;96271.84;;;0.75
67966;BMP280;54749;47.850;9.002;2023-03-01T05:08:46;96270.22;;;0.74
67966;BMP280;54749;47.850;9.002;2023-03-01T05:11:13;96278.59;;;0.72
67966;BMP280;54749;47.850;9.002;2023-03-01T05:13:41;96279.41;;;0.72
67966;BMP280;54749;47.850;9.002;2023-03-01T05:16:08;96272.81;;;0.71
67966;BMP280;54749;47.850;9.002;2023-03-01T05:18:39;96266.13;;;0.73
67966;BMP280;54749;47.850;9.002;2023-03-01T05:21:09;96268.66;;;0.72
67966;BMP280;54749;47.850;9.002;2023-03-01T05:23:36;96261.22;;;0.70
67966;BMP280;54749;47.850;9.002;2023-03-01T05:26:05;96265.34;;;0.71
67966;BMP280;54749;47.850;9.002;2023-03-01T05:28:36;96259.56;;;0.71
67966;BMP280;54749;47.850;9.002;2023-03-01T05:31:05;96250.44;;;0.71
67966;BMP280;54749;47.850;9.002;2023-03-01T05:33:37;96276.16;;;0.70
67966;BMP280;54749;47.850;9.002;2023-03-01T05:36:08;96263.72;;;0.70
67966;BMP280;54749;47.850;9.002;2023-03-01T05:38:36;96262.97;;;0.69
67966;BMP280;54749;47.850;9.002;2023-03-01T05:41:03;96262.19;;;0.67
67966;BMP280;54749;47.850;9.002;2023-03-01T05:43:31;96264.66;;;0.68
67966;BMP280;54749;47.850;9.002;2023-03-01T05:46:01;96249.81;;;0.65
67966;BMP280;54749;47.850;9.002;2023-03-01T05:48:28;96267.06;;;0.69
67966;BMP280;54749;47.850;9.002;2023-03-01T05:50:59;96259.72;;;0.67
67966;BMP280;54749;47.850;9.002;2023-03-01T05:53:26;96260.56;;;0.66
67966;BMP280;54749;47.850;9.002;2023-03-01T05:55:53;96240.69;;;0.66
67966;BMP280;54749;47.850;9.002;2023-03-01T05:58:20;96241.59;;;0.63
67966;BMP280;54749;47.850;9.002;2023-03-01T06:00:48;96232.47;;;0.64
67966;BMP280;54749;47.850;9.002;2023-03-01T06:03:17;96244.06;;;0.65
67966;BMP280;54749;47.850;9.002;2023-03-01T06:05:44;96246.53;;;0.65
67966;BMP280;54749;47.850;9.002;2023-03-01T06:08:12;96232.47;;;0.64
67966;BMP280;54749;47.850;9.002;2023-03-01T06:10:39;96251.53;;;0.63
67966;BMP280;54749;47.850;9.002;2023-03-01T06:13:07;96246.72;;;0.59
67966;BMP280;54749;47.850;9.002;2023-03-01T06:15:34;96242.59;;;0.58
67966;BMP280;54749;47.850;9.002;2023-03-01T06:18:01;96228.50;;;0.58
67966;BMP280;54749;47.850;9.002;2023-03-01T06:20:29;96246.72;;;0.59
67966;BMP280;54749;47.850;9.002;2023-03-01T06:22:56;96247.59;;;0.58
67966;BMP280;54749;47.850;9.002;2023-03-01T06:25:26;96246.84;;;0.56
67966;BMP280;54749;47.850;9.002;2023-03-01T06:27:53;96258.53;;;0.52
67966;BMP280;54749;47.850;9.002;2023-03-01T06:30:21;96249.50;;;0.50
67966;BMP280;54749;47.850;9.002;2023-03-01T06:32:49;96254.38;;;0.53
67966;BMP280;54749;47.850;9.002;2023-03-01T06:35:17;96260.97;;;0.54
67966;BMP280;54749;47.850;9.002;2023-03-01T06:37:46;96251.03;;;0.54
67966;BMP280;54749;47.850;9.002;2023-03-01T06:40:14;96242.72;;;0.55
67966;BMP280;54749;47.850;9.002;2023-03-01T06:42:43;96246.88;;;0.54
67966;BMP280;54749;47.850;9.002;2023-03-01T06:45:16;96254.38;;;0.53
67966;BMP280;54749;47.850;9.002;2023-03-01T06:47:43;96247.69;;;0.55
67966;BMP280;54749;47.850;9.002;2023-03-01T06:50:11;96239.47;;;0.53
67966;BMP280;54749;47.850;9.002;2023-03-01T06:52:38;96246.91;;;0.53
67966;BMP280;54749;47.850;9.002;2023-03-01T06:55:06;96242.72;;;0.55
67966;BMP280;54749;47.850;9.002;2023-03-01T06:57:33;96240.25;;;0.55
67966;BMP280;54749;47.850;9.002;2023-03-01T07:00:00;96245.22;;;0.55
67966;BMP280;54749;47.850;9.002;2023-03-01T07:02:27;96237.69;;;0.56
67966;BMP280;54749;47.850;9.002;2023-03-01T07:04:56;96246.78;;;0.57
67966;BMP280;54749;47.850;9.002;2023-03-01T07:07:22;96247.63;;;0.56
67966;BMP280;54749;47.850;9.002;2023-03-01T07:09:50;96234.44;;;0.54
67966;BMP280;54749;47.850;9.002;2023-03-01T07:12:17;96241.91;;;0.54
67966;BMP280;54749;47.850;9.002;2023-03-01T07:14:44;96241.13;;;0.52
67966;BMP280;54749;47.850;9.002;2023-03-01T07:17:11;96243.63;;;0.52
67966;BMP280;54749;47.850;9.002;2023-03-01T07:19:38;96242.59;;;0.58
67966;BMP280;54749;47.850;9.002;2023-03-01T07:22:05;96239.22;;;0.60
67966;BMP280;54749;47.850;9.002;2023-03-01T07:24:34;96233.47;;;0.58
67966;BMP280;54749;47.850;9.002;2023-03-01T07:27:01;96238.31;;;0.63
67966;BMP280;54749;47.850;9.002;2023-03-01T07:29:29;96248.34;;;0.60
67966;BMP280;54749;47.850;9.002;2023-03-01T07:31:56;96228.34;;;0.63
67966;BMP280;54749;47.850;9.002;2023-03-01T07:34:23;96229.91;;;0.65
67966;BMP280;54749;47.850;9.002;2023-03-01T07:36:50;96237.22;;;0.69
67966;BMP280;54749;47.850;9.002;2023-03-01T07:39:17;96241.28;;;0.72
67966;BMP280;54749;47.850;9.002;2023-03-01T07:41:45;96237.03;;;0.75
67966;BMP280;54749;47.850;9.002;2023-03-01T07:44:12;96231.19;;;0.76
67966;BMP280;54749;47.850;9.002;2023-03-01T07:46:39;96211.25;;;0.78
67966;BMP280;54749;47.850;9.002;2023-03-01T07:49:06;96236.06;;;0.79
67966;BMP280;54749;47.850;9.002;2023-03-01T07:51:33;96227.06;;;0.75
67966;BMP280;54749;47.850;9.002;2023-03-01T07:54:01;96231.25;;;0.75
67966;BMP280;54749;47.850;9.002;2023-03-01T07:56:27;96223.13;;;0.70
67966;BMP280;54749;47.850;9.002;2023-03-01T07:58:56;96228.81;;;0.73
67966;BMP280;54749;47.850;9.002;2023-03-01T08:01:22;96218.81;;;0.75
67966;BMP280;54749;47.850;9.002;2023-03-01T08:03:50;96234.56;;;0.74
67966;BMP280;54749;47.850;9.002;2023-03-01T08:06:18;96211.16;;;0.81
67966;BMP280;54749;47.850;9.002;2023-03-01T08:08:45;96209.31;;;0.86
67966;BMP280;54749;47.850;9.002;2023-03-01T08:11:14;96211.09;;;0.82
67966;BMP280;54749;47.850;9.002;2023-03-01T08:13:42;96209.34;;;0.84
67966;BMP280;54749;47.850;9.002;2023-03-01T08:16:11;96218.44;;;0.85
67966;BMP280;54749;47.850;9.002;2023-03-01T08:18:39;96206.75;;;0.87
67966;BMP280;54749;47.850;9.002;2023-03-01T08:21:11;96213.34;;;0.88
67966;BMP280;54749;47.850;9.002;2023-03-01T08:23:39;96215.84;;;0.88
67966;BMP280;54749;47.850;9.002;2023-03-01T08:26:12;96213.25;;;0.91
67966;BMP280;54749;47.850;9.002;2023-03-01T08:28:41;96213.16;;;0.94
67966;BMP280;54749;47.850;9.002;2023-03-01T08:31:15;96212.19;;;0.98
67966;BMP280;54749;47.850;9.002;2023-03-01T08:33:43;96210.38;;;1.01
67966;BMP280;54749;47.850;9.002;2023-03-01T08:36:10;96211.19;;;1.02
67966;BMP280;54749;47.850;9.002;2023-03-01T08:38:37;96199.28;;;1.09
67966;BMP280;54749;47.850;9.002;2023-03-01T08:41:04;96198.81;;;1.00
67966;BMP280;54749;47.850;9.002;2023-03-01T08:43:31;96195.41;;;1.03
67966;BMP280;54749;47.850;9.002;2023-03-01T08:45:58;96191.91;;;1.08
67966;BMP280;54749;47.850;9.002;2023-03-01T08:48:27;96192.16;;;1.01
67966;BMP280;54749;47.850;9.002;2023-03-01T08:50:55;96195.25;;;1.07
67966;BMP280;54749;47.850;9.002;2023-03-01T08:53:22;96196.81;;;1.09
67966;BMP280;54749;47.850;9.002;2023-03-01T08:55:49;96188.19;;;1.18
67966;BMP280;54749;47.850;9.002;2023-03-01T08:58:16;96194.09;;;1.15
67966;BMP280;54749;47.850;9.002;2023-03-01T09:00:46;96181.50;;;1.20
67966;BMP280;54749;47.850;9.002;2023-03-01T09:03:14;96190.34;;;1.26
67966;BMP280;54749;47.850;9.002;2023-03-01T09:05:41;96188.78;;;1.24
67966;BMP280;54749;47.850;9.002;2023-03-01T09:08:08;96206.22;;;1.24
67966;BMP280;54749;47.850;9.002;2023-03-01T09:10:37;96195.97;;;1.31
67966;BMP280;54749;47.850;9.002;2023-03-01T09:13:05;96193.19;;;1.39
67966;BMP280;54749;47.850;9.002;2023-03-01T09:15:31;96203.78;;;1.43
67966;BMP280;54749;47.850;9.002;2023-03-01T09:18:00;96195.88;;;1.34
67966;BMP280;54749;47.850;9.002;2023-03-01T09:20:27;96207.34;;;1.38
67966;BMP280;54749;47.850;9.002;2023-03-01T09:22:54;96184.88;;;1.39
67966;BMP280;54749;47.850;9.002;2023-03-01T09:25:21;96185.94;;;1.34
67966;BMP280;54749;47.850;9.002;2023-03-01T09:27:51;96199.94;;;1.37
67966;BMP280;54749;47.850;9.002;2023-03-01T09:30:18;96180.13;;;1.34
67966;BMP280;54749;47.850;9.002;2023-03-01T09:32:46;96185.63;;;1.41
67966;BMP280;54749;47.850;9.002;2023-03-01T09:35:13;96185.47;;;1.46
67966;BMP280;54749;47.850;9.002;2023-03-01T09:37:40;96169.38;;;1.54
67966;BMP280;54749;47.850;9.002;2023-03-01T09:40:15;96183.50;;;1.54
67966;BMP280;54749;47.850;9.002;2023-03-01T09:42:54;96171.81;;;1.56
67966;BMP280;54749;47.850;9.002;2023-03-01T09:45:28;96177.47;;;1.59
67966;BMP280;54749;47.850;9.002;2023-03-01T09:47:58;96180.69;;;1.61
67966;BMP280;54749;47.850;9.002;2023-03-01T09:50:26;96183.44;;;1.55
67966;BMP280;54749;47.850;9.002;2023-03-01T09:53:02;96186.50;;;1.61
67966;BMP280;54749;47.850;9.002;2023-03-01T09:55:59;96197.16;;;1.65
67966;BMP280;54749;47.850;9.002;2023-03-01T10:01:35;96193.41;;;1.76
67966;BMP280;54749;47.850;9.002;2023-03-01T10:09:42;96172.16;;;1.68
67966;BMP280;54749;47.850;9.002;2023-03-01T10:12:16;96175.84;;;1.58
67966;BMP280;54749;47.850;9.002;2023-03-01T10:14:53;96182.84;;;1.49
67966;BMP280;54749;47.850;9.002;2023-03-01T10:17:34;96171.03;;;1.54
67966;BMP280;54749;47.850;9.002;2023-03-01T10:20:26;96155.69;;;1.64
67966;BMP280;54749;47.850;9.002;2023-03-01T10:22:56;96164.84;;;1.84
67966;BMP280;54749;47.850;9.002;2023-03-01T10:28:23;96152.19;;;1.89
67966;BMP280;54749;47.850;9.002;2023-03-01T10:30:52;96164.97;;;1.81
67966;BMP280;54749;47.850;9.002;2023-03-01T10:33:23;96162.22;;;1.87
67966;BMP280;54749;47.850;9.002;2023-03-01T10:35:50;96151.50;;;1.85
67966;BMP280;54749;47.850;9.002;2023-03-01T10:38:19;96158.25;;;1.82
67966;BMP280;54749;47.850;9.002;2023-03-01T10:40:58;96163.63;;;1.73
67966;BMP280;54749;47.850;9.002;2023-03-01T10:43:28;96165.50;;;1.88
67966;BMP280;54749;47.850;9.002;2023-03-01T10:45:58;96149.66;;;1.90
67966;BMP280;54749;47.850;9.002;2023-03-01T10:48:26;96165.03;;;1.99
67966;BMP280;54749;47.850;9.002;2023-03-01T10:53:36;96153.00;;;1.89
67966;BMP280;54749;47.850;9.002;2023-03-01T10:56:10;96139.69;;;1.90
67966;BMP280;54749;47.850;9.002;2023-03-01T10:58:56;96137.25;;;1.89
67966;BMP280;54749;47.850;9.002;2023-03-01T11:01:26;96144.50;;;1.94
67966;BMP280;54749;47.850;9.002;2023-03-01T11:04:12;96137.78;;;1.95
67966;BMP280;54749;47.850;9.002;2023-03-01T11:06:41;96144.41;;;1.96
67966;BMP280;54749;47.850;9.002;2023-03-01T11:11:55;96126.59;;;1.85
67966;BMP280;54749;47.850;9.002;2023-03-01T11:14:27;96119.81;;;1.89
67966;BMP280;54749;47.850;9.002;2023-03-01T11:17:00;96134.81;;;1.87
67966;BMP280;54749;47.850;9.002;2023-03-01T11:19:27;96121.34;;;1.91
67966;BMP280;54749;47.850;9.002;2023-03-01T11:22:02;96131.44;;;1.88
67966;BMP280;54749;47.850;9.002;2023-03-01T11:24:43;96136.06;;;1.97
67966;BMP280;54749;47.850;9.002;2023-03-01T11:29:55;96132.34;;;2.07
67966;BMP280;54749;47.850;9.002;2023-03-01T11:32:27;96122.66;;;1.99
67966;BMP280;54749;47.850;9.002;2023-03-01T11:34:59;96112.13;;;2.12
67966;BMP280;54749;47.850;9.002;2023-03-01T11:37:38;96134.94;;;2.04
67966;BMP280;54749;47.850;9.002;2023-03-01T11:40:16;96126.50;;;2.08
67966;BMP280;54749;47.850;9.002;2023-03-01T11:42:50;96124.28;;;2.00
67966;BMP280;54749;47.850;9.002;2023-03-01T11:45:22;96122.41;;;2.05
67966;BMP280;54749;47.850;9.002;2023-03-01T11:48:04;96117.00;;;2.15
67966;BMP280;54749;47.850;9.002;2023-03-01T11:50:41;96115.25;;;2.17
67966;BMP280;54749;47.850;9.002;2023-03-01T11:53:30;96113.50;;;2.19
67966;BMP280;54749;47.850;9.002;2023-03-01T11:56:09;96107.72;;;2.19
67966;BMP280;54749;47.850;9.002;2023-03-01T12:07:18;96100.56;;;2.49
67966;BMP280;54749;47.850;9.002;2023-03-01T12:28:58;96065.69;;;2.67
67966;BMP280;54749;47.850;9.002;2023-03-01T12:37:17;96054.75;;;2.87
67966;BMP280;54749;47.850;9.002;2023-03-01T12:42:58;96042.81;;;3.12
67966;BMP280;54749;47.850;9.002;2023-03-01T12:45:42;96031.41;;;3.06
67966;BMP280;54749;47.850;9.002;2023-03-01T12:48:27;96055.16;;;2.97
67966;BMP280;54749;47.850;9.002;2023-03-01T12:51:00;96041.91;;;2.95
67966;BMP280;54749;47.850;9.002;2023-03-01T12:53:34;96056.22;;;2.73
67966;BMP280;54749;47.850;9.002;2023-03-01T12:56:05;96051.06;;;2.60
67966;BMP280;54749;47.850;9.002;2023-03-01T12:59:03;96047.41;;;2.66
67966;BMP280;54749;47.850;9.002;2023-03-01T13:07:33;96038.75;;;2.91
67966;BMP280;54749;47.850;9.002;2023-03-01T13:11:03;96049.81;;;2.86
67966;BMP280;54749;47.850;9.002;2023-03-01T13:13:26;96037.63;;;2.98
67966;BMP280;54749;47.850;9.002;2023-03-01T13:15:54;96045.13;;;2.80
67966;BMP280;54749;47.850;9.002;2023-03-01T13:20:56;96058.19;;;2.85
67966;BMP280;54749;47.850;9.002;2023-03-01T13:23:35;96054.09;;;2.84
67966;BMP280;54749;47.850;9.002;2023-03-01T13:31:03;96031.84;;;2.79
67966;BMP280;54749;47.850;9.002;2023-03-01T13:35:58;96020.56;;;2.89
67966;BMP280;54749;47.850;9.002;2023-03-01T13:38:38;96023.38;;;3.00
67966;BMP280;54749;47.850;9.002;2023-03-01T13:41:06;96027.34;;;3.04
67966;BMP280;54749;47.850;9.002;2023-03-01T13:43:38;96030.16;;;3.14
67966;BMP280;54749;47.850;9.002;2023-03-01T13:46:23;96028.06;;;3.24
67966;BMP280;54749;47.850;9.002;2023-03-01T13:48:53;96015.06;;;3.34
67966;BMP280;54749;47.850;9.002;2023-03-01T13:51:25;96025.72;;;3.37
67966;BMP280;54749;47.850;9.002;2023-03-01T13:53:55;96025.63;;;3.39
67966;BMP280;54749;47.850;9.002;2023-03-01T13:56:27;96028.28;;;3.36
67966;BMP280;54749;47.850;9.002;2023-03-01T13:58:59;96039.31;;;3.32
67966;BMP280;54749;47.850;9.002;2023-03-01T14:01:29;96039.09;;;3.36
67966;BMP280;54749;47.850;9.002;2023-03-01T14:03:57;96037.94;;;3.25
67966;BMP280;54749;47.850;9.002;2023-03-01T14:06:27;96050.63;;;3.04
67966;BMP280;54749;47.850;9.002;2023-03-01T14:09:25;96056.00;;;3.14
67966;BMP280;54749;47.850;9.002;2023-03-01T14:17:41;96042.50;;;3.17
67966;BMP280;54749;47.850;9.002;2023-03-01T14:20:19;96048.50;;;3.14
67966;BMP280;54749;47.850;9.002;2023-03-01T14:22:48;96052.03;;;3.10
67966;BMP280;54749;47.850;9.002;2023-03-01T14:25:26;96064.56;;;3.08
67966;BMP280;54749;47.850;9.002;2023-03-01T14:30:26;96053.97;;;3.21
67966;BMP280;54749;47.850;9.002;2023-03-01T14:32:57;96066.78;;;3.32
67966;BMP280;54749;47.850;9.002;2023-03-01T14:35:27;96059.78;;;3.38
67966;BMP280;54749;47.850;9.002;2023-03-01T14:37:55;96056.91;;;3.29
67966;BMP280;54749;47.850;9.002;2023-03-01T14:40:32;96058.53;;;3.30
67966;BMP280;54749;47.850;9.002;2023-03-01T14:43:01;96031.50;;;3.38
67966;BMP280;54749;47.850;9.002;2023-03-01T14:45:29;96010.97;;;3.49
67966;BMP280;54749;47.850;9.002;2023-03-01T14:48:03;96004.56;;;3.61
67966;BMP280;54749;47.850;9.002;2023-03-01T14:50:32;95994.78;;;3.56
67966;BMP280;54749;47.850;9.002;2023-03-01T14:53:03;95994.78;;;3.56
67966;BMP280;54749;47.850;9.002;2023-03-01T14:55:34;96000.22;;;3.64
67966;BMP280;54749;47.850;9.002;2023-03-01T14:58:05;96002.00;;;3.79
67966;BMP280;54749;47.850;9.002;2023-03-01T15:00:34;95993.19;;;3.72
67966;BMP280;54749;47.850;9.002;2023-03-01T15:03:07;95994.50;;;3.79
67966;BMP280;54749;47.850;9.002;2023-03-01T15:05:41;96002.72;;;3.97
67966;BMP280;54749;47.850;9.002;2023-03-01T15:08:18;95990.84;;;4.01
67966;BMP280;54749;47.850;9.002;2023-03-01T15:13:35;95984.59;;;4.09
67966;BMP280;54749;47.850;9.002;2023-03-01T15:16:11;95971.50;;;4.04
67966;BMP280;54749;47.850;9.002;2023-03-01T15:18:51;95974.22;;;4.00
67966;BMP280;54749;47.850;9.002;2023-03-01T15:21:22;95965.56;;;4.06
67966;BMP280;54749;47.850;9.002;2023-03-01T15:23:56;95975.22;;;4.12
67966;BMP280;54749;47.850;9.002;2023-03-01T15:26:33;95982.16;;;4.07
67966;BMP280;54749;47.850;9.002;2023-03-01T15:29:02;95988.19;;;4.03
67966;BMP280;54749;47.850;9.002;2023-03-01T15:31:34;95978.59;;;3.96
67966;BMP280;54749;47.850;9.002;2023-03-01T15:34:21;95991.97;;;3.95
67966;BMP280;54749;47.850;9.002;2023-03-01T15:36:50;95992.75;;;3.81
67966;BMP280;54749;47.850;9.002;2023-03-01T15:39:42;95986.13;;;3.80
67966;BMP280;54749;47.850;9.002;2023-03-01T15:47:49;95980.50;;;3.91
67966;BMP280;54749;47.850;9.002;2023-03-01T15:50:32;95985.66;;;3.88
67966;BMP280;54749;47.850;9.002;2023-03-01T15:53:03;95991.59;;;3.86
67966;BMP280;54749;47.850;9.002;2023-03-01T15:55:32;95990.56;;;3.90
67966;BMP280;54749;47.850;9.002;2023-03-01T15:58:03;95999.47;;;3.95
67966;BMP280;54749;47.850;9.002;2023-03-01T16:00:31;95994.47;;;3.95
67966;BMP280;54749;47.850;9.002;2023-03-01T16:02:58;95998.88;;;3.90
67966;BMP280;54749;47.850;9.002;2023-03-01T16:05:29;95997.13;;;3.92
67966;BMP280;54749;47.850;9.002;2023-03-01T16:07:57;95994.78;;;3.89
67966;BMP280;54749;47.850;9.002;2023-03-01T16:10:24;95988.00;;;3.91
67966;BMP280;54749;47.850;9.002;2023-03-01T16:12:51;95992.13;;;3.92
67966;BMP280;54749;47.850;9.002;2023-03-01T16:15:22;95974.69;;;3.91
67966;BMP280;54749;47.850;9.002;2023-03-01T16:17:50;95982.94;;;3.93
67966;BMP280;54749;47.850;9.002;2023-03-01T16:20:22;95987.94;;;3.93